createdAt,value
2018-05-27T00:00:33.068Z,16.50
2018-05-27T00:03:00.571Z,16.00
2018-05-27T00:05:28.834Z,20.80
2018-05-27T00:07:56.381Z,23.83
2018-05-27T00:10:23.874Z,21.45
2018-05-27T00:22:40.435Z,19.03
2018-05-27T00:25:07.927Z,21.83
2018-05-27T00:27:35.427Z,19.80
2018-05-27T00:30:02.957Z,19.97
2018-05-27T00:32:30.475Z,21.97
2018-05-27T00:34:57.977Z,20.73
2018-05-27T00:37:25.518Z,20.43
2018-05-27T00:39:53.016Z,22.27
2018-05-27T00:42:20.512Z,22.77
2018-05-27T00:44:48.024Z,20.53
2018-05-27T00:47:15.553Z,19.03
2018-05-27T00:49:43.045Z,19.70
2018-05-27T00:52:10.537Z,20.13
2018-05-27T00:54:38.042Z,19.97
2018-05-27T00:57:05.586Z,22.30
2018-05-27T00:59:33.860Z,19.93
2018-05-27T01:02:01.355Z,19.87
2018-05-27T01:04:28.904Z,21.23
2018-05-27T01:06:57.179Z,20.20
2018-05-27T01:09:24.676Z,18.47
2018-05-27T01:11:52.187Z,19.17
2018-05-27T01:14:20.465Z,20.37
2018-05-27T01:16:48.001Z,18.03
2018-05-27T01:19:15.506Z,17.83
2018-05-27T01:21:43.771Z,17.77
2018-05-27T01:24:11.331Z,18.07
2018-05-27T01:26:39.603Z,16.73
2018-05-27T01:29:07.104Z,16.13
2018-05-27T01:31:34.625Z,17.67
2018-05-27T01:34:02.914Z,17.57
2018-05-27T01:36:30.419Z,15.93
2018-05-27T01:38:57.946Z,16.40
2018-05-27T01:41:26.258Z,19.10
2018-05-27T01:43:53.755Z,18.37
2018-05-27T01:46:21.250Z,17.73
2018-05-27T01:48:48.775Z,18.53
2018-05-27T01:51:16.277Z,18.90
2018-05-27T01:53:43.782Z,19.43
2018-05-27T17:40:04.447Z,4.60
2018-05-27T17:52:20.282Z,4.82
2018-05-27T17:54:47.814Z,5.00
2018-05-27T18:02:09.523Z,5.00
2018-05-27T18:26:02.232Z,4.45
2018-05-27T18:28:29.786Z,3.95
2018-05-27T18:33:24.347Z,4.28
2018-05-27T18:35:51.920Z,4.15
2018-05-27T18:38:19.452Z,4.20
2018-05-27T18:40:47.723Z,3.97
2018-05-27T18:43:15.213Z,3.90
2018-05-27T18:45:42.766Z,3.70
2018-05-27T18:48:10.267Z,3.30
2018-05-27T18:50:37.766Z,3.60
2018-05-27T18:53:05.279Z,3.45
2018-05-27T18:55:32.771Z,3.87
2018-05-27T18:58:00.283Z,3.60
2018-05-27T19:00:27.770Z,3.83
2018-05-27T19:02:56.268Z,3.60
2018-05-27T19:05:23.820Z,3.25
2018-05-27T19:07:51.310Z,3.30
2018-05-27T19:10:19.566Z,3.67
2018-05-27T19:12:47.147Z,3.53
2018-05-27T19:15:14.638Z,3.47
2018-05-27T19:17:42.132Z,3.47
2018-05-27T19:20:09.662Z,3.53
2018-05-27T19:22:37.158Z,3.50
2018-05-27T19:25:04.667Z,3.90
2018-05-27T19:27:32.206Z,3.47
2018-05-27T19:29:59.704Z,3.35
2018-05-27T19:32:27.195Z,3.20
2018-05-27T19:34:54.702Z,3.20
2018-05-27T19:37:22.951Z,3.50
2018-05-27T19:39:50.499Z,2.80
2018-05-27T19:46:40.573Z,3.20
2018-05-27T19:49:08.081Z,3.40
2018-05-27T19:51:35.593Z,3.30
2018-05-27T19:54:03.165Z,2.80
2018-05-27T19:56:30.666Z,3.20
2018-05-27T19:58:58.150Z,3.43
2018-05-27T20:01:25.678Z,3.10
2018-05-27T20:03:53.166Z,3.00
2018-05-27T20:06:20.647Z,3.37
2018-05-27T20:08:48.939Z,3.03
2018-05-27T20:11:16.418Z,3.50
2018-05-27T20:13:43.983Z,3.00
2018-05-27T20:16:11.466Z,3.40
2018-05-27T20:18:38.955Z,3.10
2018-05-27T20:21:06.481Z,3.30
2018-05-27T20:23:33.970Z,3.20
2018-05-27T20:26:01.463Z,3.30
2018-05-27T20:28:28.978Z,3.20
2018-05-27T20:30:56.459Z,3.13
2018-05-27T20:33:24.710Z,3.10
2018-05-27T20:35:52.232Z,2.90
2018-05-27T20:38:19.719Z,3.30
2018-05-27T20:40:47.207Z,3.33
2018-05-27T20:43:14.742Z,2.62
2018-05-27T20:45:42.226Z,3.13
2018-05-27T20:48:09.706Z,3.43
2018-05-27T20:50:37.266Z,3.40
2018-05-27T20:53:05.514Z,3.30
2018-05-27T20:55:33.007Z,3.40
2018-05-27T20:58:00.511Z,3.63
2018-05-27T21:00:28.007Z,3.30
2018-05-27T21:02:55.546Z,3.40
2018-05-27T21:05:23.037Z,3.37
2018-05-27T21:07:51.294Z,3.90
2018-05-27T21:10:18.790Z,3.70
2018-05-27T21:12:46.274Z,3.40
2018-05-27T21:15:13.791Z,3.93
2018-05-27T21:17:41.278Z,3.13
2018-05-27T21:20:08.770Z,3.63
2018-05-27T21:22:36.329Z,4.07
2018-05-27T21:25:03.778Z,4.33
2018-05-27T21:27:31.340Z,3.77
2018-05-27T21:29:58.827Z,4.13
2018-05-27T21:32:26.319Z,4.10
2018-05-27T21:34:54.630Z,4.10
2018-05-27T21:37:22.127Z,4.27
2018-05-27T21:39:49.624Z,4.37
2018-05-27T21:42:17.973Z,4.20
2018-05-27T21:44:45.463Z,3.70
2018-05-27T21:47:13.722Z,4.20
2018-05-27T21:49:41.246Z,4.10
2018-05-27T21:52:08.736Z,4.57
2018-05-27T21:54:36.234Z,4.10
2018-05-27T21:57:03.779Z,4.20
2018-05-27T21:59:31.270Z,4.13
2018-05-27T22:01:58.758Z,4.00
2018-05-27T22:04:26.334Z,4.27
2018-05-27T22:06:55.142Z,4.10
2018-05-27T22:09:22.819Z,4.37
2018-05-27T22:11:51.098Z,4.50
2018-05-27T22:14:18.594Z,4.13
2018-05-27T22:16:46.102Z,4.00
2018-05-27T22:19:13.643Z,4.23
2018-05-27T22:21:41.135Z,4.20
2018-05-27T22:24:09.392Z,3.73
2018-05-27T22:26:36.922Z,3.90
2018-05-27T22:29:04.415Z,4.03
2018-05-27T22:31:31.907Z,4.17
2018-05-27T22:33:59.443Z,3.90
2018-05-27T22:36:26.926Z,4.00
2018-05-27T22:38:54.414Z,4.07
2018-05-27T22:41:21.955Z,4.07
2018-05-27T22:43:49.447Z,4.03
2018-05-27T22:46:16.936Z,3.97
2018-05-27T22:48:44.438Z,4.03
2018-05-27T22:51:11.955Z,4.27
2018-05-27T22:53:39.478Z,3.75
2018-05-27T22:56:06.971Z,4.20
2018-05-27T22:58:34.464Z,4.23
2018-05-27T23:01:02.756Z,4.50
2018-05-27T23:03:30.293Z,3.93
2018-05-27T23:05:57.782Z,4.10
2018-05-27T23:08:25.266Z,4.30
2018-05-27T23:10:52.778Z,3.87
2018-05-27T23:13:20.262Z,4.33
2018-05-27T23:15:47.762Z,4.03
2018-05-27T23:18:15.275Z,4.77
2018-05-27T23:20:43.031Z,4.20
2018-05-27T23:23:11.291Z,4.13
2018-05-27T23:25:38.792Z,4.67
2018-05-27T23:28:06.286Z,4.50
2018-05-27T23:30:33.818Z,4.20
2018-05-27T23:33:01.363Z,4.33
2018-05-27T23:35:29.622Z,4.30
2018-05-27T23:37:57.142Z,4.67
2018-05-27T23:40:24.635Z,4.77
2018-05-27T23:42:52.127Z,4.17
2018-05-27T23:45:19.630Z,4.53
2018-05-27T23:47:47.130Z,4.70
2018-05-27T23:50:14.704Z,5.00
2018-05-27T23:52:42.978Z,4.80
2018-05-27T23:55:10.462Z,4.80
2018-05-27T23:57:38.002Z,4.50
